Sharpsburg, MD (21782)

7:44 AM EST on December 07, 2016 (GMT -0500)
SharpsburgWeather.com | | Change Station

Elev 480 ft 39.45 °N, 77.76 °W | Updated 9 seconds ago

Mostly Cloudy
Mostly Cloudy
37.4 °F
Feels Like 37 °F
N
0.0
Wind Variable Wind from NNW
Gusts 0.0 mph

Today
High -- | Low -- °F
--% Chance of Precip.
Yesterday
High -- | Low -- °F
Precip. -- in
Pressure 30.00 in
Visibility 10.0 miles
Clouds Few 100 ft
Mostly Cloudy 2800 ft
Windchill 37 °F
Dew Point 37 °F
Humidity 99%
Rainfall 0.00 in
Snow Depth Not available.
7:18 AM 4:47 PM
First Quarter, 52% visible
SPECI KMRB 071217Z 31008KT 10SM FEW001 BKN028 04/02 A3000 RMK AO2 T00390022
Pressure 30.00 in
Visibility 10.0 miles
Clouds Few 100 ft
Mostly Cloudy 2800 ft
Windchill 37 °F
Dew Point 37 °F
Humidity 99%
Rainfall 0.00 in
Snow Depth Not available.
7:18 AM 4:47 PM
First Quarter, 52% visible
SPECI KMRB 071217Z 31008KT 10SM FEW001 BKN028 04/02 A3000 RMK AO2 T00390022

10-Day Weather Forecast

Almanac

Astronomy

Dec. 07, 2016 Rise Set
Actual Time
Civil Twilight
Nautical Twilight
Astronomical Twilight
Moon
Length of Visible Light
Length of Day
Tomorrow will be .
, % of the Moon is Illuminated

Today's Extremes

State Highs State Lows

Community

WunderPhotos

Upload Photos

1,956,112 photos uploaded!

WunderBlog® & News

Nearby

Air Quality

  Air Quality AQ Index Pollutant
Not available.

Snow Depth

Station Depth Elevation

Earthquake Activity

City Distance Mag. Time & Date
Minimum magnitude displayed is 2.5.

Coastal Water Temperatures

Place Temperature

Stations

Nearby Weather Stations

Station Location Temp. Windchill Dew Point Humidity Wind Precip. Elev Updated Type
                   

Watches & Warnings

There are currently no watches in effect.